Susan Ann — WCY5700 — position and weather

sailwx.info

Track history (hours):
 
Tides and Currents Weather Stations Pressure Air Temp Water Temp Dewpoint Dewpoint Depression Visibility Wind Speed Wind Dir Waves Ship Positions

Susan Ann

Owner: CROSS SOUND FERRY SERVICES INC, NEW LONDON, CT. More information available from US FCC via Universal Licensing System and Coast Guard Vessel Documentation Center.

Last reported at 2014-Nov-29 02:33 UTC. Time now 2014-Nov-29 08:35 UTC.
Position N 41°16' W 072°06'.

Length 72 m; draft 4 m.

Type: Passenger vessel. MMSI: 367354350.

Date/timePositionNaut miles runAvg speedWind from/ knotsBaromVisibWave heightAir tempDewpointWater temp
2014-Nov-29 02:33N 41°16' W 072°06'9 9.4
2014-Nov-29 01:33N 41°09' W 072°14'8 8.2
2014-Nov-29 00:33N 41°16' W 072°08'6 5.9
2014-Nov-28 23:33N 41°21' W 072°06'9 9.5
2014-Nov-28 22:33N 41°13' W 072°11'4 4.5
2014-Nov-28 21:34N 41°09' W 072°14'9 9.4
2014-Nov-28 20:33N 41°17' W 072°07'5 4.8
2014-Nov-28 19:33N 41°21' W 072°06'10 9.9
2014-Nov-28 18:33N 41°12' W 072°11'4 3.9
2014-Nov-28 17:33N 41°09' W 072°14'8 7.8
2014-Nov-28 16:33N 41°15' W 072°08'6 6.2
2014-Nov-28 15:34N 41°21' W 072°06'9 9.2
2014-Nov-28 14:33N 41°13' W 072°10'5 4.8
2014-Nov-28 13:33N 41°09' W 072°14'8 8.1
2014-Nov-28 12:33N 41°16' W 072°08'6 5.9
2014-Nov-28 11:33N 41°21' W 072°06'6 0.6
2014-Nov-28 02:34N 41°16' W 072°07'9 8.7
2014-Nov-28 01:33N 41°09' W 072°14'8 8.0
2014-Nov-28 00:34N 41°15' W 072°08'6 6.2
2014-Nov-27 23:33N 41°21' W 072°06'0 0.0
2014-Nov-27 22:34N 41°21' W 072°06'9 8.7
2014-Nov-27 21:33N 41°13' W 072°10'5 5.3
2014-Nov-27 20:33N 41°09' W 072°14'9 8.6
2014-Nov-27 19:33N 41°16' W 072°07'6 5.5
2014-Nov-27 18:33N 41°21' W 072°06'8 8.4
2014-Nov-27 17:33N 41°14' W 072°10'6 5.6
2014-Nov-27 16:33N 41°09' W 072°14'1010.1
2014-Nov-27 15:33N 41°17' W 072°06'4 4.1
2014-Nov-27 14:33N 41°21' W 072°05'1313.1
2014-Nov-27 13:33N 41°09' W 072°13'2 2.4
2014-Nov-27 12:33N 41°12' W 072°12'1110.9
2014-Nov-27 11:33N 41°21' W 072°06'0 0.0
2014-Nov-27 10:33N 41°21' W 072°06'1 0.1
2014-Nov-27 03:03N 41°21' W 072°05'611.5
2014-Nov-27 02:33N 41°15' W 072°08'8 7.8
2014-Nov-27 01:33N 41°09' W 072°14'7 7.5
2014-Nov-27 00:34N 41°15' W 072°08'7 6.5
2014-Nov-26 23:33N 41°21' W 072°06'10 9.7
2014-Nov-26 22:34N 41°12' W 072°11'4 4.3
2014-Nov-26 21:33N 41°09' W 072°14'9 8.6
2014-Nov-26 20:33N 41°16' W 072°07'6 5.6
2014-Nov-26 19:33N 41°21' W 072°06'10 9.7
2014-Nov-26 18:33N 41°12' W 072°11'4 4.2
2014-Nov-26 17:33N 41°09' W 072°14'9 9.0
2014-Nov-26 16:34N 41°16' W 072°07'5 5.3
2014-Nov-26 15:33N 41°21' W 072°06'1010.0
2014-Nov-26 14:33N 41°12' W 072°11'4 3.8
2014-Nov-26 13:33N 41°09' W 072°14'9 8.6
2014-Nov-26 12:33N 41°16' W 072°07'9 0.8
2014-Nov-26 01:18N 41°09' W 072°14'811.0
2014-Nov-26 00:34N 41°16' W 072°08'6 5.9
2014-Nov-25 23:33N 41°21' W 072°06'10 9.6
2014-Nov-25 22:33N 41°13' W 072°11'4 4.4
2014-Nov-25 21:33N 41°09' W 072°14'8 8.1
2014-Nov-25 20:34N 41°15' W 072°08'6 6.1
2014-Nov-25 19:33N 41°21' W 072°06'9 8.8
2014-Nov-25 18:33N 41°13' W 072°10'5 5.2
2014-Nov-25 17:33N 41°09' W 072°14'9 9.2
2014-Nov-25 16:33N 41°16' W 072°07'5 5.0
2014-Nov-25 15:34N 41°21' W 072°06'9 9.2
2014-Nov-25 14:33N 41°13' W 072°11'5 4.7
2014-Nov-25 13:33N 41°09' W 072°14'9 8.9
2014-Nov-25 12:34N 41°16' W 072°07'5 5.3
2014-Nov-25 11:33N 41°21' W 072°06'0 0.0
2014-Nov-25 01:22N 41°21' W 072°06'810.2
2014-Nov-25 00:33N 41°14' W 072°10'6 5.7
2014-Nov-24 23:33N 41°09' W 072°14'9 8.7
2014-Nov-24 22:33N 41°16' W 072°07'5 5.5
2014-Nov-24 21:33N 41°21' W 072°06'9 8.6
2014-Nov-24 20:34N 41°13' W 072°10'5 5.4
2014-Nov-24 19:33N 41°09' W 072°14'9 9.5
2014-Nov-24 18:33N 41°17' W 072°06'5 4.7
2014-Nov-24 17:32N 41°21' W 072°06'8 8.6
2014-Nov-24 16:33N 41°14' W 072°10'5 5.4
2014-Nov-24 15:33N 41°09' W 072°14'1211.9
2014-Nov-24 14:33N 41°19' W 072°05'0 0.4
2014-Nov-24 13:33N 41°19' W 072°05'1211.7
2014-Nov-24 12:33N 41°09' W 072°14'0 0.2
2014-Nov-24 11:33N 41°09' W 072°14'0 0.0
2014-Nov-24 02:33N 41°09' W 072°14'9 8.9
2014-Nov-24 01:33N 41°16' W 072°07'5 5.3
2014-Nov-24 00:33N 41°21' W 072°06'9 9.4
2014-Nov-23 23:33N 41°13' W 072°11'5 4.5
2014-Nov-23 22:33N 41°09' W 072°14'8 8.3
2014-Nov-23 21:33N 41°16' W 072°08'6 5.8
2014-Nov-23 20:33N 41°21' W 072°06'8 8.4
2014-Nov-23 19:33N 41°14' W 072°09'6 5.7
2014-Nov-23 18:33N 41°09' W 072°14'9 8.6
2014-Nov-23 17:34N 41°16' W 072°07'6 5.6
2014-Nov-23 16:34N 41°21' W 072°06'9 8.7
2014-Nov-23 15:33N 41°13' W 072°10'5 5.2
2014-Nov-23 14:33N 41°09' W 072°14'9 8.7
2014-Nov-23 13:33N 41°16' W 072°07'5 5.5
2014-Nov-23 12:33N 41°21' W 072°06'3 0.3
2014-Nov-23 01:33N 41°18' W 072°05'1111.4
2014-Nov-23 00:34N 41°09' W 072°14'0 0.2
2014-Nov-22 23:33N 41°09' W 072°14'8 8.5
2014-Nov-22 22:33N 41°16' W 072°07'6 5.7
2014-Nov-22 21:33N 41°21' W 072°06'9 9.0
2014-Nov-22 20:34N 41°13' W 072°10'5 5.0
2014-Nov-22 19:33N 41°09' W 072°14'9 8.9
2014-Nov-22 18:34N 41°15' W 072°06'6 6.3
2014-Nov-22 17:34N 41°21' W 072°06'9 9.1
2014-Nov-22 16:33N 41°13' W 072°10'5 4.8
2014-Nov-22 15:34N 41°09' W 072°14'8 8.2
2014-Nov-22 14:33N 41°16' W 072°08'6 5.8
2014-Nov-22 13:33N 41°21' W 072°06'9 9.1
2014-Nov-22 12:33N 41°13' W 072°10'5 4.8
2014-Nov-22 11:33N 41°09' W 072°14'0 0.0
2014-Nov-22 01:22N 41°09' W 072°14'810.4
2014-Nov-22 00:33N 41°16' W 072°08'6 5.7
2014-Nov-21 23:33N 41°21' W 072°06'10 9.9
2014-Nov-21 22:33N 41°12' W 072°11'4 4.1
2014-Nov-21 21:33N 41°09' W 072°14'9 8.6
2014-Nov-21 20:33N 41°16' W 072°07'6 5.7
2014-Nov-21 19:33N 41°21' W 072°06'9 8.8
2014-Nov-21 18:33N 41°13' W 072°09'5 5.4
2014-Nov-21 17:34N 41°09' W 072°14'8 8.3
2014-Nov-21 16:33N 41°16' W 072°07'6 5.8
2014-Nov-21 15:33N 41°21' W 072°06'9 9.0
2014-Nov-21 14:33N 41°13' W 072°10'5 5.1
2014-Nov-21 13:33N 41°09' W 072°14'8 8.1
2014-Nov-21 12:33N 41°16' W 072°08'6 6.0
2014-Nov-21 11:33N 41°21' W 072°06'1 0.1
2014-Nov-21 01:18N 41°20' W 072°05'811.2
2014-Nov-21 00:33N 41°14' W 072°12'5 4.9
2014-Nov-20 23:33N 41°09' W 072°14'9 8.8
2014-Nov-20 22:33N 41°15' W 072°06'6 6.0
2014-Nov-20 21:33N 41°21' W 072°06'10 9.7
2014-Nov-20 20:33N 41°13' W 072°12'4 4.2
2014-Nov-20 19:34N 41°09' W 072°14'10 9.7
2014-Nov-20 18:34N 41°15' W 072°05'6 5.9
2014-Nov-20 17:33N 41°21' W 072°06'8 8.4
2014-Nov-20 16:33N 41°13' W 072°10'6 5.6
2014-Nov-20 15:33N 41°09' W 072°14'1111.3
2014-Nov-20 14:33N 41°18' W 072°05'1 0.9
2014-Nov-20 13:33N 41°19' W 072°05'1212.1
2014-Nov-20 12:34N 41°09' W 072°14'0 0.3
2014-Nov-20 11:33N 41°09' W 072°14'0 0.0
2014-Nov-20 01:16N 41°09' W 072°14'912.1
2014-Nov-20 00:33N 41°16' W 072°08'6 5.6
2014-Nov-19 23:33N 41°21' W 072°06'9 9.2
2014-Nov-19 22:33N 41°13' W 072°11'5 4.7
2014-Nov-19 21:33N 41°09' W 072°14'9 8.7
2014-Nov-19 20:33N 41°16' W 072°07'6 5.5
2014-Nov-19 19:33N 41°21' W 072°06'8 8.5
2014-Nov-19 18:33N 41°13' W 072°10'6 5.5
2014-Nov-19 17:33N 41°09' W 072°14'10 9.8
2014-Nov-19 16:34N 41°16' W 072°04'6 5.9
2014-Nov-19 15:34N 41°21' W 072°06'9 9.0
2014-Nov-19 14:33N 41°13' W 072°11'5 4.9
2014-Nov-19 13:33N 41°09' W 072°14'10 9.6
2014-Nov-19 12:33N 41°16' W 072°05'6 5.6
2014-Nov-19 11:33N 41°21' W 072°06'  
Track history (hours):
 
Tides and Currents Weather Stations Pressure Air Temp Water Temp Dewpoint Dewpoint Depression Visibility Wind Speed Wind Dir Waves Ship Positions

Susan Ann

Owner: CROSS SOUND FERRY SERVICES INC, NEW LONDON, CT. More information available from US FCC via Universal Licensing System and Coast Guard Vessel Documentation Center.

Last reported at 2014-Nov-29 02:33 UTC. Time now 2014-Nov-29 08:35 UTC.
Position N 41°16' W 072°06'.

Length 72 m; draft 4 m.

Type: Passenger vessel. MMSI: 367354350.

Date/timePositionNaut miles runAvg speedWind from/ knotsBaromVisibWave heightAir tempDewpointWater temp
2014-Nov-29 02:33N 41°16' W 072°06'9 9.4
2014-Nov-29 01:33N 41°09' W 072°14'8 8.2
2014-Nov-29 00:33N 41°16' W 072°08'6 5.9
2014-Nov-28 23:33N 41°21' W 072°06'9 9.5
2014-Nov-28 22:33N 41°13' W 072°11'4 4.5
2014-Nov-28 21:34N 41°09' W 072°14'9 9.4
2014-Nov-28 20:33N 41°17' W 072°07'5 4.8
2014-Nov-28 19:33N 41°21' W 072°06'10 9.9
2014-Nov-28 18:33N 41°12' W 072°11'4 3.9
2014-Nov-28 17:33N 41°09' W 072°14'8 7.8
2014-Nov-28 16:33N 41°15' W 072°08'6 6.2
2014-Nov-28 15:34N 41°21' W 072°06'9 9.2
2014-Nov-28 14:33N 41°13' W 072°10'5 4.8
2014-Nov-28 13:33N 41°09' W 072°14'8 8.1
2014-Nov-28 12:33N 41°16' W 072°08'6 5.9
2014-Nov-28 11:33N 41°21' W 072°06'6 0.6
2014-Nov-28 02:34N 41°16' W 072°07'9 8.7
2014-Nov-28 01:33N 41°09' W 072°14'8 8.0
2014-Nov-28 00:34N 41°15' W 072°08'6 6.2
2014-Nov-27 23:33N 41°21' W 072°06'0 0.0
2014-Nov-27 22:34N 41°21' W 072°06'9 8.7
2014-Nov-27 21:33N 41°13' W 072°10'5 5.3
2014-Nov-27 20:33N 41°09' W 072°14'9 8.6
2014-Nov-27 19:33N 41°16' W 072°07'6 5.5
2014-Nov-27 18:33N 41°21' W 072°06'8 8.4
2014-Nov-27 17:33N 41°14' W 072°10'6 5.6
2014-Nov-27 16:33N 41°09' W 072°14'1010.1
2014-Nov-27 15:33N 41°17' W 072°06'4 4.1
2014-Nov-27 14:33N 41°21' W 072°05'1313.1
2014-Nov-27 13:33N 41°09' W 072°13'2 2.4
2014-Nov-27 12:33N 41°12' W 072°12'1110.9
2014-Nov-27 11:33N 41°21' W 072°06'0 0.0
2014-Nov-27 10:33N 41°21' W 072°06'1 0.1
2014-Nov-27 03:03N 41°21' W 072°05'611.5
2014-Nov-27 02:33N 41°15' W 072°08'8 7.8
2014-Nov-27 01:33N 41°09' W 072°14'7 7.5
2014-Nov-27 00:34N 41°15' W 072°08'7 6.5
2014-Nov-26 23:33N 41°21' W 072°06'10 9.7
2014-Nov-26 22:34N 41°12' W 072°11'4 4.3
2014-Nov-26 21:33N 41°09' W 072°14'9 8.6
2014-Nov-26 20:33N 41°16' W 072°07'6 5.6
2014-Nov-26 19:33N 41°21' W 072°06'10 9.7
2014-Nov-26 18:33N 41°12' W 072°11'4 4.2
2014-Nov-26 17:33N 41°09' W 072°14'9 9.0
2014-Nov-26 16:34N 41°16' W 072°07'5 5.3
2014-Nov-26 15:33N 41°21' W 072°06'1010.0
2014-Nov-26 14:33N 41°12' W 072°11'4 3.8
2014-Nov-26 13:33N 41°09' W 072°14'9 8.6
2014-Nov-26 12:33N 41°16' W 072°07'9 0.8
2014-Nov-26 01:18N 41°09' W 072°14'811.0
2014-Nov-26 00:34N 41°16' W 072°08'6 5.9
2014-Nov-25 23:33N 41°21' W 072°06'10 9.6
2014-Nov-25 22:33N 41°13' W 072°11'4 4.4
2014-Nov-25 21:33N 41°09' W 072°14'8 8.1
2014-Nov-25 20:34N 41°15' W 072°08'6 6.1
2014-Nov-25 19:33N 41°21' W 072°06'9 8.8
2014-Nov-25 18:33N 41°13' W 072°10'5 5.2
2014-Nov-25 17:33N 41°09' W 072°14'9 9.2
2014-Nov-25 16:33N 41°16' W 072°07'5 5.0
2014-Nov-25 15:34N 41°21' W 072°06'9 9.2
2014-Nov-25 14:33N 41°13' W 072°11'5 4.7
2014-Nov-25 13:33N 41°09' W 072°14'9 8.9
2014-Nov-25 12:34N 41°16' W 072°07'5 5.3
2014-Nov-25 11:33N 41°21' W 072°06'0 0.0
2014-Nov-25 01:22N 41°21' W 072°06'810.2
2014-Nov-25 00:33N 41°14' W 072°10'6 5.7
2014-Nov-24 23:33N 41°09' W 072°14'9 8.7
2014-Nov-24 22:33N 41°16' W 072°07'5 5.5
2014-Nov-24 21:33N 41°21' W 072°06'9 8.6
2014-Nov-24 20:34N 41°13' W 072°10'5 5.4
2014-Nov-24 19:33N 41°09' W 072°14'9 9.5
2014-Nov-24 18:33N 41°17' W 072°06'5 4.7
2014-Nov-24 17:32N 41°21' W 072°06'8 8.6
2014-Nov-24 16:33N 41°14' W 072°10'5 5.4
2014-Nov-24 15:33N 41°09' W 072°14'1211.9
2014-Nov-24 14:33N 41°19' W 072°05'0 0.4
2014-Nov-24 13:33N 41°19' W 072°05'1211.7
2014-Nov-24 12:33N 41°09' W 072°14'0 0.2
2014-Nov-24 11:33N 41°09' W 072°14'0 0.0
2014-Nov-24 02:33N 41°09' W 072°14'9 8.9
2014-Nov-24 01:33N 41°16' W 072°07'5 5.3
2014-Nov-24 00:33N 41°21' W 072°06'9 9.4
2014-Nov-23 23:33N 41°13' W 072°11'5 4.5
2014-Nov-23 22:33N 41°09' W 072°14'8 8.3
2014-Nov-23 21:33N 41°16' W 072°08'6 5.8
2014-Nov-23 20:33N 41°21' W 072°06'8 8.4
2014-Nov-23 19:33N 41°14' W 072°09'6 5.7
2014-Nov-23 18:33N 41°09' W 072°14'9 8.6
2014-Nov-23 17:34N 41°16' W 072°07'6 5.6
2014-Nov-23 16:34N 41°21' W 072°06'9 8.7
2014-Nov-23 15:33N 41°13' W 072°10'5 5.2
2014-Nov-23 14:33N 41°09' W 072°14'9 8.7
2014-Nov-23 13:33N 41°16' W 072°07'5 5.5
2014-Nov-23 12:33N 41°21' W 072°06'3 0.3
2014-Nov-23 01:33N 41°18' W 072°05'1111.4
2014-Nov-23 00:34N 41°09' W 072°14'0 0.2
2014-Nov-22 23:33N 41°09' W 072°14'8 8.5
2014-Nov-22 22:33N 41°16' W 072°07'6 5.7
2014-Nov-22 21:33N 41°21' W 072°06'9 9.0
2014-Nov-22 20:34N 41°13' W 072°10'5 5.0
2014-Nov-22 19:33N 41°09' W 072°14'9 8.9
2014-Nov-22 18:34N 41°15' W 072°06'6 6.3
2014-Nov-22 17:34N 41°21' W 072°06'9 9.1
2014-Nov-22 16:33N 41°13' W 072°10'5 4.8
2014-Nov-22 15:34N 41°09' W 072°14'8 8.2
2014-Nov-22 14:33N 41°16' W 072°08'6 5.8
2014-Nov-22 13:33N 41°21' W 072°06'9 9.1
2014-Nov-22 12:33N 41°13' W 072°10'5 4.8
2014-Nov-22 11:33N 41°09' W 072°14'0 0.0
2014-Nov-22 01:22N 41°09' W 072°14'810.4
2014-Nov-22 00:33N 41°16' W 072°08'6 5.7
2014-Nov-21 23:33N 41°21' W 072°06'10 9.9
2014-Nov-21 22:33N 41°12' W 072°11'4 4.1
2014-Nov-21 21:33N 41°09' W 072°14'9 8.6
2014-Nov-21 20:33N 41°16' W 072°07'6 5.7
2014-Nov-21 19:33N 41°21' W 072°06'9 8.8
2014-Nov-21 18:33N 41°13' W 072°09'5 5.4
2014-Nov-21 17:34N 41°09' W 072°14'8 8.3
2014-Nov-21 16:33N 41°16' W 072°07'6 5.8
2014-Nov-21 15:33N 41°21' W 072°06'9 9.0
2014-Nov-21 14:33N 41°13' W 072°10'5 5.1
2014-Nov-21 13:33N 41°09' W 072°14'8 8.1
2014-Nov-21 12:33N 41°16' W 072°08'6 6.0
2014-Nov-21 11:33N 41°21' W 072°06'1 0.1
2014-Nov-21 01:18N 41°20' W 072°05'811.2
2014-Nov-21 00:33N 41°14' W 072°12'5 4.9
2014-Nov-20 23:33N 41°09' W 072°14'9 8.8
2014-Nov-20 22:33N 41°15' W 072°06'6 6.0
2014-Nov-20 21:33N 41°21' W 072°06'10 9.7
2014-Nov-20 20:33N 41°13' W 072°12'4 4.2
2014-Nov-20 19:34N 41°09' W 072°14'10 9.7
2014-Nov-20 18:34N 41°15' W 072°05'6 5.9
2014-Nov-20 17:33N 41°21' W 072°06'8 8.4
2014-Nov-20 16:33N 41°13' W 072°10'6 5.6
2014-Nov-20 15:33N 41°09' W 072°14'1111.3
2014-Nov-20 14:33N 41°18' W 072°05'1 0.9
2014-Nov-20 13:33N 41°19' W 072°05'1212.1
2014-Nov-20 12:34N 41°09' W 072°14'0 0.3
2014-Nov-20 11:33N 41°09' W 072°14'0 0.0
2014-Nov-20 01:16N 41°09' W 072°14'912.1
2014-Nov-20 00:33N 41°16' W 072°08'6 5.6
2014-Nov-19 23:33N 41°21' W 072°06'9 9.2
2014-Nov-19 22:33N 41°13' W 072°11'5 4.7
2014-Nov-19 21:33N 41°09' W 072°14'9 8.7
2014-Nov-19 20:33N 41°16' W 072°07'6 5.5
2014-Nov-19 19:33N 41°21' W 072°06'8 8.5
2014-Nov-19 18:33N 41°13' W 072°10'6 5.5
2014-Nov-19 17:33N 41°09' W 072°14'10 9.8
2014-Nov-19 16:34N 41°16' W 072°04'6 5.9
2014-Nov-19 15:34N 41°21' W 072°06'9 9.0
2014-Nov-19 14:33N 41°13' W 072°11'5 4.9
2014-Nov-19 13:33N 41°09' W 072°14'10 9.6
2014-Nov-19 12:33N 41°16' W 072°05'6 5.6
2014-Nov-19 11:33N 41°21' W 072°06'  

Dump ship's entire track history